sensor_id;sensor_type;location;lat;lon;timestamp;temperature;humidity
1227;DHT22;13131;52.01168960;8.54078325;2023-03-07T02:06:47;2.80;99.90
1227;DHT22;13131;52.01168960;8.54078325;2023-03-07T02:09:21;2.70;99.90
1227;DHT22;13131;52.01168960;8.54078325;2023-03-07T02:11:49;2.70;99.90
1227;DHT22;13131;52.01168960;8.54078325;2023-03-07T02:14:17;2.70;99.90
1227;DHT22;13131;52.01168960;8.54078325;2023-03-07T02:16:45;2.70;99.90
1227;DHT22;13131;52.01168960;8.54078325;2023-03-07T02:19:35;2.70;99.90
1227;DHT22;13131;52.01168960;8.54078325;2023-03-07T02:22:13;2.70;99.90
1227;DHT22;13131;52.01168960;8.54078325;2023-03-07T02:25:05;2.60;99.90
1227;DHT22;13131;52.01168960;8.54078325;2023-03-07T02:27:36;2.60;99.90
1227;DHT22;13131;52.01168960;8.54078325;2023-03-07T02:30:07;2.60;99.90
1227;DHT22;13131;52.01168960;8.54078325;2023-03-07T02:32:34;2.60;99.90
1227;DHT22;13131;52.01168960;8.54078325;2023-03-07T02:35:17;2.70;99.90
1227;DHT22;13131;52.01168960;8.54078325;2023-03-07T02:37:44;2.70;99.90
1227;DHT22;13131;52.01168960;8.54078325;2023-03-07T02:40:14;2.70;99.90
1227;DHT22;13131;52.01168960;8.54078325;2023-03-07T02:42:44;2.70;99.90
1227;DHT22;13131;52.01168960;8.54078325;2023-03-07T02:45:16;2.70;99.90
1227;DHT22;13131;52.01168960;8.54078325;2023-03-07T02:47:45;2.70;99.90
1227;DHT22;13131;52.01168960;8.54078325;2023-03-07T02:50:13;2.70;99.90
1227;DHT22;13131;52.01168960;8.54078325;2023-03-07T02:52:41;2.70;99.90
1227;DHT22;13131;52.01168960;8.54078325;2023-03-07T02:57:38;2.80;99.90
1227;DHT22;13131;52.01168960;8.54078325;2023-03-07T03:00:06;2.80;99.90
1227;DHT22;13131;52.01168960;8.54078325;2023-03-07T03:02:35;2.80;99.90
1227;DHT22;13131;52.01168960;8.54078325;2023-03-07T03:10:17;2.90;99.90
1227;DHT22;13131;52.01168960;8.54078325;2023-03-07T03:12:45;2.90;99.90
1227;DHT22;13131;52.01168960;8.54078325;2023-03-07T03:15:14;3.00;99.90
1227;DHT22;13131;52.01168960;8.54078325;2023-03-07T03:17:42;3.00;99.90
1227;DHT22;13131;52.01168960;8.54078325;2023-03-07T03:20:10;3.10;99.90
1227;DHT22;13131;52.01168960;8.54078325;2023-03-07T03:22:43;3.10;99.90
1227;DHT22;13131;52.01168960;8.54078325;2023-03-07T03:25:12;3.10;99.90
1227;DHT22;13131;52.01168960;8.54078325;2023-03-07T03:27:40;3.20;99.90
1227;DHT22;13131;52.01168960;8.54078325;2023-03-07T03:30:11;3.20;99.90
1227;DHT22;13131;52.01168960;8.54078325;2023-03-07T03:32:40;3.20;99.90
1227;DHT22;13131;52.01168960;8.54078325;2023-03-07T03:35:10;3.20;99.90
1227;DHT22;13131;52.01168960;8.54078325;2023-03-07T03:37:38;3.20;99.90
1227;DHT22;13131;52.01168960;8.54078325;2023-03-07T03:40:08;3.20;99.90
1227;DHT22;13131;52.01168960;8.54078325;2023-03-07T03:42:37;3.20;99.90
1227;DHT22;13131;52.01168960;8.54078325;2023-03-07T03:45:05;3.30;99.90
1227;DHT22;13131;52.01168960;8.54078325;2023-03-07T03:47:34;3.30;99.90
1227;DHT22;13131;52.01168960;8.54078325;2023-03-07T03:50:05;3.40;99.90
1227;DHT22;13131;52.01168960;8.54078325;2023-03-07T03:52:36;3.40;99.90
1227;DHT22;13131;52.01168960;8.54078325;2023-03-07T04:00:16;3.40;99.90
1227;DHT22;13131;52.01168960;8.54078325;2023-03-07T04:02:47;3.50;99.90
1227;DHT22;13131;52.01168960;8.54078325;2023-03-07T04:05:15;3.50;99.90
1227;DHT22;13131;52.01168960;8.54078325;2023-03-07T04:12:37;3.50;99.90
1227;DHT22;13131;52.01168960;8.54078325;2023-03-07T04:15:07;3.40;99.90
1227;DHT22;13131;52.01168960;8.54078325;2023-03-07T04:17:38;3.50;99.90
1227;DHT22;13131;52.01168960;8.54078325;2023-03-07T04:20:08;3.40;99.90
1227;DHT22;13131;52.01168960;8.54078325;2023-03-07T04:22:47;3.40;99.90
1227;DHT22;13131;52.01168960;8.54078325;2023-03-07T04:25:16;3.40;99.90
1227;DHT22;13131;52.01168960;8.54078325;2023-03-07T04:27:45;3.40;99.90
1227;DHT22;13131;52.01168960;8.54078325;2023-03-07T04:32:53;3.30;99.90
1227;DHT22;13131;52.01168960;8.54078325;2023-03-07T04:35:23;3.40;99.90
1227;DHT22;13131;52.01168960;8.54078325;2023-03-07T04:37:52;3.30;99.90
1227;DHT22;13131;52.01168960;8.54078325;2023-03-07T04:40:21;3.30;99.90
1227;DHT22;13131;52.01168960;8.54078325;2023-03-07T04:42:48;3.30;99.90
1227;DHT22;13131;52.01168960;8.54078325;2023-03-07T04:45:16;3.40;99.90
1227;DHT22;13131;52.01168960;8.54078325;2023-03-07T04:47:49;3.40;99.90
1227;DHT22;13131;52.01168960;8.54078325;2023-03-07T04:50:21;3.40;99.90
1227;DHT22;13131;52.01168960;8.54078325;2023-03-07T04:52:49;3.30;99.90
1227;DHT22;13131;52.01168960;8.54078325;2023-03-07T05:10:52;2.60;99.90
1227;DHT22;13131;52.01168960;8.54078325;2023-03-07T05:13:22;2.40;99.90
1227;DHT22;13131;52.01168960;8.54078325;2023-03-07T05:15:53;2.40;99.90
1227;DHT22;13131;52.01168960;8.54078325;2023-03-07T05:18:21;2.50;99.90
1227;DHT22;13131;52.01168960;8.54078325;2023-03-07T05:20:54;2.60;99.90
1227;DHT22;13131;52.01168960;8.54078325;2023-03-07T05:23:22;2.70;99.90
1227;DHT22;13131;52.01168960;8.54078325;2023-03-07T05:25:50;2.70;99.90
1227;DHT22;13131;52.01168960;8.54078325;2023-03-07T05:28:21;2.70;99.90
1227;DHT22;13131;52.01168960;8.54078325;2023-03-07T05:30:48;2.60;99.90
1227;DHT22;13131;52.01168960;8.54078325;2023-03-07T05:33:23;2.60;99.90
1227;DHT22;13131;52.01168960;8.54078325;2023-03-07T05:35:50;2.60;99.90
1227;DHT22;13131;52.01168960;8.54078325;2023-03-07T05:38:18;2.70;99.90
1227;DHT22;13131;52.01168960;8.54078325;2023-03-07T05:40:46;2.60;99.90
1227;DHT22;13131;52.01168960;8.54078325;2023-03-07T05:43:13;2.60;99.90
1227;DHT22;13131;52.01168960;8.54078325;2023-03-07T05:45:41;2.60;99.90
1227;DHT22;13131;52.01168960;8.54078325;2023-03-07T05:48:12;2.60;99.90
1227;DHT22;13131;52.01168960;8.54078325;2023-03-07T06:03:38;2.40;99.90
1227;DHT22;13131;52.01168960;8.54078325;2023-03-07T06:06:06;2.40;99.90
1227;DHT22;13131;52.01168960;8.54078325;2023-03-07T06:11:09;2.40;99.90
1227;DHT22;13131;52.01168960;8.54078325;2023-03-07T06:16:38;2.30;99.90
1227;DHT22;13131;52.01168960;8.54078325;2023-03-07T06:19:07;2.30;99.90
1227;DHT22;13131;52.01168960;8.54078325;2023-03-07T06:21:35;2.30;99.90
1227;DHT22;13131;52.01168960;8.54078325;2023-03-07T06:24:03;2.30;99.90
1227;DHT22;13131;52.01168960;8.54078325;2023-03-07T06:26:33;2.30;99.90
1227;DHT22;13131;52.01168960;8.54078325;2023-03-07T06:29:10;2.30;99.90
1227;DHT22;13131;52.01168960;8.54078325;2023-03-07T06:31:40;2.30;99.90
1227;DHT22;13131;52.01168960;8.54078325;2023-03-07T06:34:09;2.30;99.90
1227;DHT22;13131;52.01168960;8.54078325;2023-03-07T06:36:40;2.30;99.90
1227;DHT22;13131;52.01168960;8.54078325;2023-03-07T06:41:43;2.30;99.90
1227;DHT22;13131;52.01168960;8.54078325;2023-03-07T06:44:11;2.20;99.90
1227;DHT22;13131;52.01168960;8.54078325;2023-03-07T06:46:39;2.30;99.90
1227;DHT22;13131;52.01168960;8.54078325;2023-03-07T06:49:09;2.30;99.90
1227;DHT22;13131;52.01168960;8.54078325;2023-03-07T06:51:40;2.30;99.90
1227;DHT22;13131;52.01168960;8.54078325;2023-03-07T06:54:07;2.20;99.90
1227;DHT22;13131;52.01168960;8.54078325;2023-03-07T06:56:36;2.20;99.90
1227;DHT22;13131;52.01168960;8.54078325;2023-03-07T06:59:05;2.10;99.90
1227;DHT22;13131;52.01168960;8.54078325;2023-03-07T07:01:33;2.10;99.90
1227;DHT22;13131;52.01168960;8.54078325;2023-03-07T07:04:02;2.10;99.90
1227;DHT22;13131;52.01168960;8.54078325;2023-03-07T07:06:30;1.90;99.90
1227;DHT22;13131;52.01168960;8.54078325;2023-03-07T07:08:59;1.90;99.90
1227;DHT22;13131;52.01168960;8.54078325;2023-03-07T07:11:29;1.90;99.90
1227;DHT22;13131;52.01168960;8.54078325;2023-03-07T07:13:59;1.80;99.90
1227;DHT22;13131;52.01168960;8.54078325;2023-03-07T07:16:26;1.80;99.90
1227;DHT22;13131;52.01168960;8.54078325;2023-03-07T07:21:31;1.70;99.90
1227;DHT22;13131;52.01168960;8.54078325;2023-03-07T07:23:59;1.70;99.90
1227;DHT22;13131;52.01168960;8.54078325;2023-03-07T07:26:26;1.60;99.90
1227;DHT22;13131;52.01168960;8.54078325;2023-03-07T07:28:54;1.60;99.90
1227;DHT22;13131;52.01168960;8.54078325;2023-03-07T07:31:21;1.50;99.90
1227;DHT22;13131;52.01168960;8.54078325;2023-03-07T07:33:49;1.50;99.90
1227;DHT22;13131;52.01168960;8.54078325;2023-03-07T07:36:17;1.60;99.90
1227;DHT22;13131;52.01168960;8.54078325;2023-03-07T07:38:44;1.70;99.90
1227;DHT22;13131;52.01168960;8.54078325;2023-03-07T07:41:14;1.80;99.90
1227;DHT22;13131;52.01168960;8.54078325;2023-03-07T07:43:41;1.80;99.90
1227;DHT22;13131;52.01168960;8.54078325;2023-03-07T07:46:10;1.80;99.90
1227;DHT22;13131;52.01168960;8.54078325;2023-03-07T07:48:38;1.80;99.90
1227;DHT22;13131;52.01168960;8.54078325;2023-03-07T07:51:10;1.80;99.90
1227;DHT22;13131;52.01168960;8.54078325;2023-03-07T07:53:37;1.70;99.90
1227;DHT22;13131;52.01168960;8.54078325;2023-03-07T08:01:19;1.60;99.90
1227;DHT22;13131;52.01168960;8.54078325;2023-03-07T08:06:26;1.50;99.90
1227;DHT22;13131;52.01168960;8.54078325;2023-03-07T08:08:55;1.40;99.90
1227;DHT22;13131;52.01168960;8.54078325;2023-03-07T08:11:25;1.40;99.90
1227;DHT22;13131;52.01168960;8.54078325;2023-03-07T08:13:57;1.30;99.90
1227;DHT22;13131;52.01168960;8.54078325;2023-03-07T08:16:26;1.40;99.90
1227;DHT22;13131;52.01168960;8.54078325;2023-03-07T08:18:56;1.40;99.90
1227;DHT22;13131;52.01168960;8.54078325;2023-03-07T08:24:01;1.40;99.90
1227;DHT22;13131;52.01168960;8.54078325;2023-03-07T08:26:30;1.40;99.90
1227;DHT22;13131;52.01168960;8.54078325;2023-03-07T08:28:57;1.60;99.90
1227;DHT22;13131;52.01168960;8.54078325;2023-03-07T08:31:25;1.60;99.90
1227;DHT22;13131;52.01168960;8.54078325;2023-03-07T08:33:53;1.70;99.90
1227;DHT22;13131;52.01168960;8.54078325;2023-03-07T08:36:22;1.70;99.90
1227;DHT22;13131;52.01168960;8.54078325;2023-03-07T08:38:53;1.80;99.90
1227;DHT22;13131;52.01168960;8.54078325;2023-03-07T08:41:21;1.80;99.90
1227;DHT22;13131;52.01168960;8.54078325;2023-03-07T08:43:49;1.90;99.90
1227;DHT22;13131;52.01168960;8.54078325;2023-03-07T08:51:28;1.70;99.90
1227;DHT22;13131;52.01168960;8.54078325;2023-03-07T08:54:02;1.70;99.90
1227;DHT22;13131;52.01168960;8.54078325;2023-03-07T08:56:29;1.70;99.90
1227;DHT22;13131;52.01168960;8.54078325;2023-03-07T08:58:56;1.60;99.90
1227;DHT22;13131;52.01168960;8.54078325;2023-03-07T09:01:24;1.50;99.90
1227;DHT22;13131;52.01168960;8.54078325;2023-03-07T09:09:01;1.50;99.90
1227;DHT22;13131;52.01168960;8.54078325;2023-03-07T09:11:30;1.50;99.90
1227;DHT22;13131;52.01168960;8.54078325;2023-03-07T09:13:58;1.50;99.90
1227;DHT22;13131;52.01168960;8.54078325;2023-03-07T09:16:25;1.60;99.90
1227;DHT22;13131;52.01168960;8.54078325;2023-03-07T09:18:53;1.60;99.90
1227;DHT22;13131;52.01168960;8.54078325;2023-03-07T09:21:20;1.70;99.90
1227;DHT22;13131;52.01168960;8.54078325;2023-03-07T09:26:23;1.70;99.90
1227;DHT22;13131;52.01168960;8.54078325;2023-03-07T09:28:53;1.70;99.90
1227;DHT22;13131;52.01168960;8.54078325;2023-03-07T09:31:24;1.70;99.90
1227;DHT22;13131;52.01168960;8.54078325;2023-03-07T09:33:52;1.70;99.90
1227;DHT22;13131;52.01168960;8.54078325;2023-03-07T09:36:19;1.80;99.90
1227;DHT22;13131;52.01168960;8.54078325;2023-03-07T09:38:47;1.70;99.90
1227;DHT22;13131;52.01168960;8.54078325;2023-03-07T09:47:33;1.80;99.90
1227;DHT22;13131;52.01168960;8.54078325;2023-03-07T09:49:52;1.70;99.90
1227;DHT22;13131;52.01168960;8.54078325;2023-03-07T09:52:22;1.60;99.90
1227;DHT22;13131;52.01168960;8.54078325;2023-03-07T09:54:58;1.50;99.90
1227;DHT22;13131;52.01168960;8.54078325;2023-03-07T09:57:42;1.60;99.90
1227;DHT22;13131;52.01168960;8.54078325;2023-03-07T10:00:23;1.60;99.90
1227;DHT22;13131;52.01168960;8.54078325;2023-03-07T10:05:56;1.50;99.90
1227;DHT22;13131;52.01168960;8.54078325;2023-03-07T10:08:34;1.50;99.90
1227;DHT22;13131;52.01168960;8.54078325;2023-03-07T10:16:50;1.50;99.90
1227;DHT22;13131;52.01168960;8.54078325;2023-03-07T10:19:45;1.50;99.90
1227;DHT22;13131;52.01168960;8.54078325;2023-03-07T10:30:25;1.60;99.90
1227;DHT22;13131;52.01168960;8.54078325;2023-03-07T10:32:56;1.70;99.90
1227;DHT22;13131;52.01168960;8.54078325;2023-03-07T10:35:42;1.70;99.90
1227;DHT22;13131;52.01168960;8.54078325;2023-03-07T10:38:32;1.80;99.90
1227;DHT22;13131;52.01168960;8.54078325;2023-03-07T10:41:06;1.80;99.90
1227;DHT22;13131;52.01168960;8.54078325;2023-03-07T10:43:32;1.80;99.90
1227;DHT22;13131;52.01168960;8.54078325;2023-03-07T10:48:36;1.70;99.90
1227;DHT22;13131;52.01168960;8.54078325;2023-03-07T10:53:56;1.70;99.90
1227;DHT22;13131;52.01168960;8.54078325;2023-03-07T10:56:24;1.70;99.90
1227;DHT22;13131;52.01168960;8.54078325;2023-03-07T10:59:09;1.70;99.90
1227;DHT22;13131;52.01168960;8.54078325;2023-03-07T11:01:38;1.80;99.90
1227;DHT22;13131;52.01168960;8.54078325;2023-03-07T11:04:22;1.90;99.90
1227;DHT22;13131;52.01168960;8.54078325;2023-03-07T11:06:58;1.90;99.90
1227;DHT22;13131;52.01168960;8.54078325;2023-03-07T11:09:30;1.90;99.90
1227;DHT22;13131;52.01168960;8.54078325;2023-03-07T11:14:53;1.90;99.90
1227;DHT22;13131;52.01168960;8.54078325;2023-03-07T11:17:39;1.90;99.90
1227;DHT22;13131;52.01168960;8.54078325;2023-03-07T11:20:02;1.90;99.90
1227;DHT22;13131;52.01168960;8.54078325;2023-03-07T11:22:41;1.80;99.90
1227;DHT22;13131;52.01168960;8.54078325;2023-03-07T12:10:16;2.40;99.90
1227;DHT22;13131;52.01168960;8.54078325;2023-03-07T12:26:10;2.90;99.90
1227;DHT22;13131;52.01168960;8.54078325;2023-03-07T12:28:54;2.60;99.90
1227;DHT22;13131;52.01168960;8.54078325;2023-03-07T12:31:35;2.50;99.90
1227;DHT22;13131;52.01168960;8.54078325;2023-03-07T12:34:03;2.70;99.90
1227;DHT22;13131;52.01168960;8.54078325;2023-03-07T12:42:40;2.40;99.90
1227;DHT22;13131;52.01168960;8.54078325;2023-03-07T12:45:20;-0.40;99.90
1227;DHT22;13131;52.01168960;8.54078325;2023-03-07T12:48:07;2.40;99.90
1227;DHT22;13131;52.01168960;8.54078325;2023-03-07T12:50:59;2.40;99.90
1227;DHT22;13131;52.01168960;8.54078325;2023-03-07T12:53:52;2.40;99.90
1227;DHT22;13131;52.01168960;8.54078325;2023-03-07T12:59:25;2.20;99.90
1227;DHT22;13131;52.01168960;8.54078325;2023-03-07T13:02:00;1.10;99.90
1227;DHT22;13131;52.01168960;8.54078325;2023-03-07T13:04:34;2.10;99.90
1227;DHT22;13131;52.01168960;8.54078325;2023-03-07T13:10:49;2.30;99.90
1227;DHT22;13131;52.01168960;8.54078325;2023-03-07T13:16:32;2.30;99.90
1227;DHT22;13131;52.01168960;8.54078325;2023-03-07T13:24:53;2.30;99.90
1227;DHT22;13131;52.01168960;8.54078325;2023-03-07T13:27:43;2.30;99.90
1227;DHT22;13131;52.01168960;8.54078325;2023-03-07T13:33:43;2.40;99.90
1227;DHT22;13131;52.01168960;8.54078325;2023-03-07T13:45:56;2.50;99.90
1227;DHT22;13131;52.01168960;8.54078325;2023-03-07T13:54:05;2.30;99.90
1227;DHT22;13131;52.01168960;8.54078325;2023-03-07T13:56:42;2.50;99.90
1227;DHT22;13131;52.01168960;8.54078325;2023-03-07T13:59:19;2.50;99.90
1227;DHT22;13131;52.01168960;8.54078325;2023-03-07T14:01:55;2.60;99.90
1227;DHT22;13131;52.01168960;8.54078325;2023-03-07T14:04:34;2.40;99.90
1227;DHT22;13131;52.01168960;8.54078325;2023-03-07T14:07:09;2.40;99.90
1227;DHT22;13131;52.01168960;8.54078325;2023-03-07T14:21:41;2.50;99.90
1227;DHT22;13131;52.01168960;8.54078325;2023-03-07T14:24:40;2.60;99.90
1227;DHT22;13131;52.01168960;8.54078325;2023-03-07T14:27:14;2.50;99.90
1227;DHT22;13131;52.01168960;8.54078325;2023-03-07T14:32:27;2.60;99.90
1227;DHT22;13131;52.01168960;8.54078325;2023-03-07T14:34:56;2.70;99.90
1227;DHT22;13131;52.01168960;8.54078325;2023-03-07T14:37:30;2.70;99.90
1227;DHT22;13131;52.01168960;8.54078325;2023-03-07T14:42:53;2.60;99.90
1227;DHT22;13131;52.01168960;8.54078325;2023-03-07T14:48:44;2.80;99.90
1227;DHT22;13131;52.01168960;8.54078325;2023-03-07T14:53:49;3.10;99.90
1227;DHT22;13131;52.01168960;8.54078325;2023-03-07T14:56:25;3.10;99.90
1227;DHT22;13131;52.01168960;8.54078325;2023-03-07T14:59:01;3.30;99.90
1227;DHT22;13131;52.01168960;8.54078325;2023-03-07T15:01:38;3.20;99.90
1227;DHT22;13131;52.01168960;8.54078325;2023-03-07T15:09:18;3.30;99.90
1227;DHT22;13131;52.01168960;8.54078325;2023-03-07T15:17:27;3.00;99.90
1227;DHT22;13131;52.01168960;8.54078325;2023-03-07T15:22:43;2.80;99.90
1227;DHT22;13131;52.01168960;8.54078325;2023-03-07T15:25:27;2.70;99.90
1227;DHT22;13131;52.01168960;8.54078325;2023-03-07T15:28:03;2.60;99.90
1227;DHT22;13131;52.01168960;8.54078325;2023-03-07T15:36:17;2.50;99.90
1227;DHT22;13131;52.01168960;8.54078325;2023-03-07T15:39:22;2.20;99.90
1227;DHT22;13131;52.01168960;8.54078325;2023-03-07T15:42:00;2.30;99.90
1227;DHT22;13131;52.01168960;8.54078325;2023-03-07T15:44:38;2.20;99.90
1227;DHT22;13131;52.01168960;8.54078325;2023-03-07T15:47:16;1.80;99.90
1227;DHT22;13131;52.01168960;8.54078325;2023-03-07T15:49:54;1.80;99.90
1227;DHT22;13131;52.01168960;8.54078325;2023-03-07T16:13:15;1.40;99.90
1227;DHT22;13131;52.01168960;8.54078325;2023-03-07T16:16:02;1.40;99.90
1227;DHT22;13131;52.01168960;8.54078325;2023-03-07T16:18:49;1.40;99.90
1227;DHT22;13131;52.01168960;8.54078325;2023-03-07T16:21:21;1.40;99.90
1227;DHT22;13131;52.01168960;8.54078325;2023-03-07T16:23:59;1.40;99.90
1227;DHT22;13131;52.01168960;8.54078325;2023-03-07T16:26:33;1.40;99.90
1227;DHT22;13131;52.01168960;8.54078325;2023-03-07T16:29:04;1.30;99.90
1227;DHT22;13131;52.01168960;8.54078325;2023-03-07T16:37:36;1.30;99.90
1227;DHT22;13131;52.01168960;8.54078325;2023-03-07T17:16:49;1.20;99.90
1227;DHT22;13131;52.01168960;8.54078325;2023-03-07T17:19:27;1.10;99.90
1227;DHT22;13131;52.01168960;8.54078325;2023-03-07T17:35:24;0.90;99.90
1227;DHT22;13131;52.01168960;8.54078325;2023-03-07T17:37:56;0.90;99.90
1227;DHT22;13131;52.01168960;8.54078325;2023-03-07T17:40:26;0.80;99.90
1227;DHT22;13131;52.01168960;8.54078325;2023-03-07T17:42:55;0.80;99.90
1227;DHT22;13131;52.01168960;8.54078325;2023-03-07T17:45:24;0.80;99.90
1227;DHT22;13131;52.01168960;8.54078325;2023-03-07T17:47:53;0.80;99.90
1227;DHT22;13131;52.01168960;8.54078325;2023-03-07T17:53:00;0.80;99.90
1227;DHT22;13131;52.01168960;8.54078325;2023-03-07T17:55:30;0.80;99.90
1227;DHT22;13131;52.01168960;8.54078325;2023-03-07T17:58:09;0.80;99.90
1227;DHT22;13131;52.01168960;8.54078325;2023-03-07T18:00:37;0.90;99.90
1227;DHT22;13131;52.01168960;8.54078325;2023-03-07T18:03:06;0.90;99.90
1227;DHT22;13131;52.01168960;8.54078325;2023-03-07T18:08:11;0.90;99.90
1227;DHT22;13131;52.01168960;8.54078325;2023-03-07T18:10:42;0.90;99.90
1227;DHT22;13131;52.01168960;8.54078325;2023-03-07T18:13:11;0.90;99.90
1227;DHT22;13131;52.01168960;8.54078325;2023-03-07T18:15:46;0.80;99.90
1227;DHT22;13131;52.01168960;8.54078325;2023-03-07T18:18:14;0.80;99.90
1227;DHT22;13131;52.01168960;8.54078325;2023-03-07T18:20:41;0.80;99.90
1227;DHT22;13131;52.01168960;8.54078325;2023-03-07T18:23:11;0.90;99.90
1227;DHT22;13131;52.01168960;8.54078325;2023-03-07T18:25:44;0.90;99.90
1227;DHT22;13131;52.01168960;8.54078325;2023-03-07T18:28:15;0.90;99.90
1227;DHT22;13131;52.01168960;8.54078325;2023-03-07T18:30:44;0.90;99.90
1227;DHT22;13131;52.01168960;8.54078325;2023-03-07T18:33:14;0.90;99.90
1227;DHT22;13131;52.01168960;8.54078325;2023-03-07T18:35:41;0.90;99.90
1227;DHT22;13131;52.01168960;8.54078325;2023-03-07T18:38:09;0.90;99.90
1227;DHT22;13131;52.01168960;8.54078325;2023-03-07T18:40:36;1.00;99.90
1227;DHT22;13131;52.01168960;8.54078325;2023-03-07T18:43:04;0.90;99.90
1227;DHT22;13131;52.01168960;8.54078325;2023-03-07T18:45:31;0.90;99.90
1227;DHT22;13131;52.01168960;8.54078325;2023-03-07T18:47:59;0.80;99.90
1227;DHT22;13131;52.01168960;8.54078325;2023-03-07T18:50:26;0.80;99.90
1227;DHT22;13131;52.01168960;8.54078325;2023-03-07T18:52:55;0.90;99.90
1227;DHT22;13131;52.01168960;8.54078325;2023-03-07T18:55:22;0.90;99.90
1227;DHT22;13131;52.01168960;8.54078325;2023-03-07T18:57:54;0.90;99.90
1227;DHT22;13131;52.01168960;8.54078325;2023-03-07T19:00:25;0.90;99.90
1227;DHT22;13131;52.01168960;8.54078325;2023-03-07T19:02:54;0.90;99.90
1227;DHT22;13131;52.01168960;8.54078325;2023-03-07T19:05:21;0.90;99.90
1227;DHT22;13131;52.01168960;8.54078325;2023-03-07T19:07:50;0.90;99.90
1227;DHT22;13131;52.01168960;8.54078325;2023-03-07T19:10:18;0.80;99.90
1227;DHT22;13131;52.01168960;8.54078325;2023-03-07T19:12:45;0.80;99.90
1227;DHT22;13131;52.01168960;8.54078325;2023-03-07T19:15:13;0.80;99.90
